createdAt,value
2023-03-08T00:00:21.095Z,1.99
2023-03-08T00:01:20.979Z,2.02
2023-03-08T00:02:20.941Z,1.97
2023-03-08T00:03:20.897Z,2.04
2023-03-08T00:04:21.399Z,2.02
2023-03-08T00:05:20.831Z,1.91
2023-03-08T00:06:20.794Z,1.88
2023-03-08T00:07:20.760Z,1.85
2023-03-08T00:08:20.791Z,1.95
2023-03-08T00:09:20.714Z,1.78
2023-03-08T00:10:20.637Z,1.8
2023-03-08T00:11:20.655Z,1.76
2023-03-08T00:12:20.585Z,1.76
2023-03-08T00:13:20.550Z,1.76
2023-03-08T00:14:20.518Z,1.74
2023-03-08T00:15:20.488Z,1.78
2023-03-08T00:16:20.598Z,1.76
2023-03-08T00:17:20.403Z,1.59
2023-03-08T00:18:20.358Z,1.63
2023-03-08T00:19:20.420Z,1.59
2023-03-08T00:20:20.285Z,1.67
2023-03-08T00:21:20.240Z,1.6
2023-03-08T00:22:20.206Z,1.6
2023-03-08T00:23:20.173Z,1.62
2023-03-08T00:24:20.162Z,1.62
2023-03-08T00:25:20.130Z,1.68
2023-03-08T00:26:20.252Z,1.67
2023-03-08T00:27:20.056Z,1.63
2023-03-08T00:28:19.998Z,1.62
2023-03-08T00:29:20.249Z,1.63
2023-03-08T00:30:19.941Z,1.67
2023-03-08T00:31:20.045Z,1.63
2023-03-08T00:32:19.948Z,1.58
2023-03-08T00:33:19.812Z,1.58
2023-03-08T00:34:19.785Z,1.6
2023-03-08T00:35:19.865Z,1.53
2023-03-08T00:36:19.711Z,1.6
2023-03-08T00:37:19.660Z,1.53
2023-03-08T00:38:19.628Z,1.44
2023-03-08T00:39:19.587Z,1.5
2023-03-08T00:40:19.567Z,1.49
2023-03-08T00:41:19.561Z,1.6
2023-03-08T00:42:19.488Z,1.38
2023-03-08T00:43:19.473Z,1.38
2023-03-08T00:44:19.406Z,1.34
2023-03-08T00:45:19.364Z,1.4
2023-03-08T00:46:19.542Z,1.4
2023-03-08T00:47:19.336Z,1.38
2023-03-08T00:48:19.262Z,1.42
2023-03-08T00:49:19.228Z,1.3
2023-03-08T00:50:19.212Z,1.32
2023-03-08T00:51:19.142Z,1.38
2023-03-08T00:52:19.122Z,1.3
2023-03-08T00:53:19.096Z,1.35
2023-03-08T00:54:19.040Z,1.3
2023-03-08T00:55:19.006Z,1.32
2023-03-08T00:56:18.960Z,1.32
2023-03-08T00:57:18.974Z,1.3
2023-03-08T00:58:18.982Z,1.3
2023-03-08T00:59:18.679Z,1.34
2023-03-08T01:00:18.842Z,1.38
2023-03-08T01:01:19.135Z,1.42
2023-03-08T01:02:18.753Z,1.44
2023-03-08T01:03:18.740Z,1.35
2023-03-08T01:04:18.720Z,1.42
2023-03-08T01:05:18.632Z,1.41
2023-03-08T01:06:18.882Z,1.35
2023-03-08T01:07:18.563Z,1.38
2023-03-08T01:08:18.542Z,1.38
2023-03-08T01:09:18.497Z,1.42
2023-03-08T01:10:18.463Z,1.55
2023-03-08T01:11:18.413Z,1.49
2023-03-08T01:12:18.377Z,1.48
2023-03-08T01:13:18.377Z,1.49
2023-03-08T01:14:18.336Z,1.49
2023-03-08T01:15:18.294Z,1.48
2023-03-08T01:16:18.279Z,1.55
2023-03-08T01:17:18.194Z,1.41
2023-03-08T01:18:18.165Z,1.53
2023-03-08T01:19:18.145Z,1.55
2023-03-08T01:20:18.083Z,1.59
2023-03-08T01:21:18.052Z,1.5
2023-03-08T01:22:18.006Z,1.59
2023-03-08T01:23:17.979Z,1.62
2023-03-08T01:24:17.943Z,1.63
2023-03-08T01:25:17.896Z,1.71
2023-03-08T01:26:17.920Z,1.6
2023-03-08T01:27:17.826Z,1.63
2023-03-08T01:28:17.783Z,1.68
2023-03-08T01:29:17.776Z,1.68
2023-03-08T01:30:17.710Z,1.62
2023-03-08T01:31:17.788Z,1.63
2023-03-08T01:32:17.829Z,1.68
2023-03-08T01:33:17.610Z,1.63
2023-03-08T01:34:17.569Z,1.62
2023-03-08T01:35:17.587Z,1.63
2023-03-08T01:36:17.550Z,1.71
2023-03-08T01:37:17.507Z,1.63
2023-03-08T01:38:17.457Z,1.59
2023-03-08T01:39:17.390Z,1.56
2023-03-08T01:40:17.375Z,1.63
2023-03-08T01:41:17.320Z,1.63
2023-03-08T01:42:17.301Z,1.73
2023-03-08T01:43:17.240Z,1.56
2023-03-08T01:44:17.216Z,1.68
2023-03-08T01:45:17.198Z,1.6
2023-03-08T01:46:17.151Z,1.71
2023-03-08T01:47:17.160Z,1.73
2023-03-08T01:48:17.065Z,1.74
2023-03-08T01:49:17.047Z,1.71
2023-03-08T01:50:16.987Z,1.7
2023-03-08T01:51:16.979Z,1.7
2023-03-08T01:52:16.947Z,1.71
2023-03-08T01:53:16.874Z,1.73
2023-03-08T01:54:16.851Z,1.74
2023-03-08T01:55:16.811Z,1.77
2023-03-08T01:56:16.774Z,1.84
2023-03-08T01:57:16.754Z,1.76
2023-03-08T01:58:16.699Z,1.78
2023-03-08T01:59:16.657Z,1.78
2023-03-08T02:00:16.661Z,1.78
2023-03-08T02:01:16.831Z,1.74
2023-03-08T02:02:16.556Z,1.77
2023-03-08T02:03:16.391Z,1.8
2023-03-08T02:04:16.474Z,1.84
2023-03-08T02:05:16.440Z,1.85
2023-03-08T02:06:16.418Z,1.8
2023-03-08T02:07:16.390Z,1.84
2023-03-08T02:08:16.119Z,1.74
2023-03-08T02:09:16.292Z,1.76
2023-03-08T02:10:16.261Z,1.81
2023-03-08T02:11:16.254Z,1.88
2023-03-08T02:12:16.202Z,1.89
2023-03-08T02:13:16.154Z,1.94
2023-03-08T02:14:16.130Z,1.94
2023-03-08T02:15:16.093Z,2
2023-03-08T02:16:16.079Z,1.99
2023-03-08T02:17:16.038Z,1.95
2023-03-08T02:18:15.995Z,2
2023-03-08T02:19:15.974Z,2.02
2023-03-08T02:20:15.948Z,2.04
2023-03-08T02:21:15.932Z,1.92
2023-03-08T02:22:15.827Z,1.99
2023-03-08T02:23:15.884Z,2
2023-03-08T02:24:15.750Z,1.99
2023-03-08T02:25:15.716Z,2
2023-03-08T02:26:15.688Z,2.02
2023-03-08T02:27:15.665Z,1.97
2023-03-08T02:28:15.616Z,2.02
2023-03-08T02:29:15.682Z,2.04
2023-03-08T02:30:15.556Z,1.99
2023-03-08T02:31:15.529Z,1.99
2023-03-08T02:32:15.773Z,2.02
2023-03-08T02:33:15.581Z,1.97
2023-03-08T02:34:15.406Z,1.95
2023-03-08T02:35:15.399Z,1.95
2023-03-08T02:36:15.442Z,2.04
2023-03-08T02:37:15.301Z,2.04
2023-03-08T02:38:15.252Z,2.04
2023-03-08T02:39:15.241Z,1.99
2023-03-08T02:40:15.219Z,1.94
2023-03-08T02:41:15.135Z,1.95
2023-03-08T02:42:15.147Z,1.97
2023-03-08T02:43:15.080Z,1.94
2023-03-08T02:44:15.055Z,1.99
2023-03-08T02:45:15.009Z,1.99
2023-03-08T02:46:14.960Z,2.04
2023-03-08T02:47:14.975Z,2.04
2023-03-08T02:48:14.898Z,2.02
2023-03-08T02:49:14.878Z,1.95
2023-03-08T02:50:14.812Z,1.99
2023-03-08T02:51:14.816Z,2.02
2023-03-08T02:52:14.762Z,2.1
2023-03-08T02:53:14.732Z,2.06
2023-03-08T02:54:16.813Z,2.08
2023-03-08T02:55:14.666Z,2.06
2023-03-08T02:56:14.604Z,2.06
2023-03-08T02:57:14.601Z,2.02
2023-03-08T02:58:14.534Z,2.02
2023-03-08T02:59:14.500Z,1.97
2023-03-08T03:00:14.487Z,2
2023-03-08T03:01:14.590Z,2
2023-03-08T03:02:14.397Z,2.08
2023-03-08T03:03:14.349Z,2.02
2023-03-08T03:04:14.398Z,2
2023-03-08T03:05:14.323Z,1.97
2023-03-08T03:06:14.291Z,2
2023-03-08T03:07:14.234Z,1.95
2023-03-08T03:08:14.172Z,1.95
2023-03-08T03:09:14.137Z,2
2023-03-08T03:10:14.110Z,2
2023-03-08T03:11:14.089Z,2.04
2023-03-08T03:12:14.032Z,2.07
2023-03-08T03:13:13.990Z,2.02
2023-03-08T03:14:13.960Z,1.99
2023-03-08T03:15:13.917Z,1.95
2023-03-08T03:16:14.161Z,2.02
2023-03-08T03:17:13.850Z,2
2023-03-08T03:18:13.827Z,1.97
2023-03-08T03:19:13.767Z,2.02
2023-03-08T03:20:13.770Z,1.99
2023-03-08T03:21:13.751Z,2.07
2023-03-08T03:22:13.687Z,1.99
2023-03-08T03:23:13.670Z,1.95
2023-03-08T03:24:13.591Z,2.06
2023-03-08T03:25:13.551Z,2.04
2023-03-08T03:26:13.521Z,2.07
2023-03-08T03:27:13.538Z,2.02
2023-03-08T03:28:13.449Z,2.11
2023-03-08T03:29:13.432Z,2.11
2023-03-08T03:30:13.416Z,2.07
2023-03-08T03:31:13.555Z,2.15
2023-03-08T03:32:13.410Z,2.14
2023-03-08T03:33:13.277Z,2.14
2023-03-08T03:34:13.300Z,2.08
2023-03-08T03:35:13.216Z,2.08
2023-03-08T03:36:13.173Z,2.14
2023-03-08T03:37:13.142Z,2.06
2023-03-08T03:38:13.098Z,2.13
2023-03-08T03:39:13.083Z,2.13
2023-03-08T03:40:13.016Z,2.08
2023-03-08T03:41:13.002Z,2.07
2023-03-08T03:42:12.961Z,2.02
2023-03-08T03:43:12.980Z,2.02
2023-03-08T03:44:12.881Z,2.02
2023-03-08T03:45:12.835Z,2.07
2023-03-08T03:46:12.886Z,2
2023-03-08T03:47:12.760Z,2.13
2023-03-08T03:48:12.753Z,2.04
2023-03-08T03:49:12.687Z,1.99
2023-03-08T03:50:12.660Z,2.04
2023-03-08T03:51:12.624Z,2.04
2023-03-08T03:52:12.610Z,2.04
2023-03-08T03:53:12.354Z,2.13
2023-03-08T03:54:12.528Z,2.04
2023-03-08T03:55:12.501Z,2.06
2023-03-08T03:56:12.466Z,2.13
2023-03-08T03:57:12.435Z,2.06
2023-03-08T03:58:12.401Z,2.07
2023-03-08T03:59:12.384Z,2
2023-03-08T04:00:12.299Z,1.99
2023-03-08T04:01:12.309Z,2.04
2023-03-08T04:02:12.246Z,2.08
2023-03-08T04:03:12.761Z,2.02
2023-03-08T04:04:12.162Z,2
2023-03-08T04:05:12.125Z,2.02
2023-03-08T04:06:12.120Z,2.07
2023-03-08T04:07:12.065Z,2.06
2023-03-08T04:08:12.025Z,1.97
2023-03-08T04:09:12.026Z,2
2023-03-08T04:10:11.949Z,2.04
2023-03-08T04:11:11.934Z,2.02
2023-03-08T04:12:11.886Z,2.06
2023-03-08T04:13:11.832Z,2.06
2023-03-08T04:14:11.818Z,2.11
2023-03-08T04:15:11.790Z,2.14
2023-03-08T04:16:12.210Z,2.08
2023-03-08T04:17:11.693Z,2.13
2023-03-08T04:18:11.677Z,2.17
2023-03-08T04:19:11.620Z,2.17
2023-03-08T04:20:11.591Z,2.17
2023-03-08T04:21:11.559Z,2.17
2023-03-08T04:22:11.673Z,2.2
2023-03-08T04:23:11.498Z,2.11
2023-03-08T04:24:11.447Z,2.2
2023-03-08T04:25:11.432Z,2.15
2023-03-08T04:26:11.372Z,2.22
2023-03-08T04:27:11.373Z,2.17
2023-03-08T04:28:11.301Z,2.15
2023-03-08T04:29:11.272Z,2.15
2023-03-08T04:30:11.218Z,2.17
2023-03-08T04:31:11.417Z,2.22
2023-03-08T04:32:11.314Z,2.17
2023-03-08T04:33:11.132Z,2.17
2023-03-08T04:34:11.164Z,2.18
2023-03-08T04:35:11.064Z,2.2
2023-03-08T04:36:11.113Z,2.14
2023-03-08T04:37:10.978Z,2.14
2023-03-08T04:38:10.944Z,2.18
2023-03-08T04:39:10.902Z,2.1
2023-03-08T04:40:10.890Z,2.2
2023-03-08T04:41:10.867Z,2.15
2023-03-08T04:42:10.799Z,2.1
2023-03-08T04:43:10.882Z,2.11
2023-03-08T04:44:10.728Z,2.15
2023-03-08T04:45:10.706Z,2.17
2023-03-08T04:46:10.738Z,2.17
2023-03-08T04:47:10.698Z,2.13
2023-03-08T04:48:10.600Z,2.15
2023-03-08T04:49:10.583Z,2.15
2023-03-08T04:50:10.275Z,2.18
2023-03-08T04:51:10.474Z,2.1
2023-03-08T04:52:10.469Z,2.15
2023-03-08T04:53:10.428Z,2.17
2023-03-08T04:54:10.396Z,2.11
2023-03-08T04:55:10.347Z,2.14
2023-03-08T04:56:10.304Z,2.15
2023-03-08T04:57:10.281Z,2.14
2023-03-08T04:58:10.234Z,2.08
2023-03-08T04:59:10.251Z,2.15
2023-03-08T05:00:10.157Z,2.18
2023-03-08T05:01:10.122Z,2.24
2023-03-08T05:02:10.323Z,2.14
2023-03-08T05:03:10.077Z,2.15
2023-03-08T05:04:10.016Z,2.17
2023-03-08T05:05:10.143Z,2.17
2023-03-08T05:06:09.970Z,2.22
2023-03-08T05:07:09.660Z,2.26
2023-03-08T05:08:09.887Z,2.14
2023-03-08T05:09:09.841Z,2.2
2023-03-08T05:10:09.823Z,2.2
2023-03-08T05:11:09.774Z,2.14
2023-03-08T05:12:09.763Z,2.24
2023-03-08T05:13:09.826Z,2.11
2023-03-08T05:14:09.668Z,2.17
2023-03-08T05:15:09.646Z,2.13
2023-03-08T05:16:09.926Z,2.24
2023-03-08T05:17:09.586Z,2.29
2023-03-08T05:18:09.519Z,2.24
2023-03-08T05:19:09.531Z,2.26
2023-03-08T05:20:09.460Z,2.25
2023-03-08T05:21:09.413Z,2.26
2023-03-08T05:22:09.404Z,2.26
2023-03-08T05:23:09.133Z,2.32
2023-03-08T05:24:09.296Z,2.24
2023-03-08T05:25:09.031Z,2.29
2023-03-08T05:26:09.226Z,2.26
2023-03-08T05:27:09.204Z,2.28
2023-03-08T05:28:09.157Z,2.31
2023-03-08T05:29:09.160Z,2.24
2023-03-08T05:30:09.075Z,2.28
2023-03-08T05:31:09.099Z,2.26
2023-03-08T05:32:10.707Z,2.28
2023-03-08T05:33:08.975Z,2.24
2023-03-08T05:34:08.954Z,2.25
2023-03-08T05:35:08.938Z,2.17
2023-03-08T05:36:09.106Z,2.31
2023-03-08T05:37:08.840Z,2.22
2023-03-08T05:38:08.809Z,2.17
2023-03-08T05:39:08.754Z,2.26
2023-03-08T05:40:08.792Z,2.22
2023-03-08T05:41:08.692Z,2.22
2023-03-08T05:42:08.655Z,2.13
2023-03-08T05:43:08.620Z,2.24
2023-03-08T05:44:08.605Z,2.25
2023-03-08T05:45:08.767Z,2.22
2023-03-08T05:46:09.198Z,2.24
2023-03-08T05:47:08.505Z,2.14
2023-03-08T05:48:08.436Z,2.14
2023-03-08T05:49:08.396Z,2.14
2023-03-08T05:50:08.366Z,2.17
2023-03-08T05:51:08.356Z,2.17
2023-03-08T05:52:08.299Z,2.2
2023-03-08T05:53:08.263Z,2.18
2023-03-08T05:54:08.237Z,2.22
2023-03-08T05:55:08.190Z,2.14
2023-03-08T05:56:07.911Z,2.14
2023-03-08T05:57:08.158Z,2.14
2023-03-08T05:58:08.082Z,2.2
2023-03-08T05:59:08.045Z,2.22
2023-03-08T06:00:08.021Z,2.15
2023-03-08T06:01:07.995Z,2.15
2023-03-08T06:02:08.037Z,2.13
2023-03-08T06:03:08.044Z,2.24
2023-03-08T06:04:07.922Z,2.2
2023-03-08T06:05:07.839Z,2.15
2023-03-08T06:06:07.801Z,2.28
2023-03-08T06:07:07.818Z,2.22
2023-03-08T06:08:07.729Z,2.15
2023-03-08T06:09:07.681Z,2.1
2023-03-08T06:10:07.671Z,2.15
2023-03-08T06:11:07.396Z,2.13
2023-03-08T06:12:07.583Z,2.2
2023-03-08T06:13:07.535Z,2.17
2023-03-08T06:14:07.514Z,2.22
2023-03-08T06:15:07.463Z,2.15
2023-03-08T06:16:07.422Z,2.11
2023-03-08T06:17:07.572Z,2.22
2023-03-08T06:18:07.377Z,2.15
2023-03-08T06:19:07.142Z,2.15
2023-03-08T06:20:07.295Z,2.15
2023-03-08T06:21:07.249Z,2.14
2023-03-08T06:22:06.871Z,2.1
2023-03-08T06:23:07.239Z,2.14
2023-03-08T06:24:07.158Z,2.15
2023-03-08T06:25:07.179Z,2.15
2023-03-08T06:26:07.066Z,2.08
2023-03-08T06:27:07.037Z,2.13
2023-03-08T06:28:07.005Z,2.11
2023-03-08T06:29:06.952Z,2.07
2023-03-08T06:30:06.995Z,2.02
2023-03-08T06:31:07.185Z,2.08
2023-03-08T06:32:07.166Z,2.08
2023-03-08T06:33:06.844Z,2.13
2023-03-08T06:34:06.788Z,2.02
2023-03-08T06:35:06.845Z,2.04
2023-03-08T06:36:06.724Z,2.02
2023-03-08T06:37:06.687Z,2.08
2023-03-08T06:38:06.647Z,2.04
2023-03-08T06:39:06.641Z,1.99
2023-03-08T06:40:06.586Z,2.1
2023-03-08T06:41:06.566Z,2.02
2023-03-08T06:42:06.505Z,1.94
2023-03-08T06:43:06.476Z,1.97
2023-03-08T06:44:06.451Z,1.94
2023-03-08T06:45:06.389Z,2
2023-03-08T06:46:06.607Z,1.94
2023-03-08T06:47:06.326Z,1.95
2023-03-08T06:48:06.289Z,1.89
2023-03-08T06:49:06.284Z,1.92
2023-03-08T06:50:06.264Z,1.92
2023-03-08T06:51:06.221Z,1.88
2023-03-08T06:52:06.164Z,1.8
2023-03-08T06:53:06.916Z,1.78
2023-03-08T06:54:06.088Z,1.7
2023-03-08T06:55:06.081Z,1.62
2023-03-08T06:56:06.004Z,1.63
2023-03-08T06:57:08.773Z,1.66
2023-03-08T06:58:05.950Z,1.68
2023-03-08T06:59:05.915Z,1.71
2023-03-08T07:00:05.861Z,1.62
2023-03-08T07:01:06.126Z,1.67
2023-03-08T07:02:05.795Z,1.55
2023-03-08T07:03:05.752Z,1.59
2023-03-08T07:04:05.904Z,1.59
2023-03-08T07:05:05.694Z,1.67
2023-03-08T07:06:05.655Z,1.56
2023-03-08T07:07:05.900Z,1.63
2023-03-08T07:08:05.572Z,1.49
2023-03-08T07:09:05.544Z,1.55
2023-03-08T07:10:05.504Z,1.55
2023-03-08T07:11:05.491Z,1.58
2023-03-08T07:12:07.769Z,1.52
2023-03-08T07:13:05.381Z,1.59
2023-03-08T07:14:05.348Z,1.5
2023-03-08T07:15:05.362Z,1.42
2023-03-08T07:16:05.457Z,1.45
2023-03-08T07:17:05.238Z,1.44
2023-03-08T07:18:05.225Z,1.41
2023-03-08T07:19:05.167Z,1.41
2023-03-08T07:20:05.150Z,1.42
2023-03-08T07:21:05.137Z,1.41
2023-03-08T07:22:05.074Z,1.37
2023-03-08T07:23:05.137Z,1.35
2023-03-08T07:24:04.997Z,1.3
2023-03-08T07:25:04.988Z,1.23
2023-03-08T07:26:04.939Z,1.3
2023-03-08T07:27:04.915Z,1.24
2023-03-08T07:28:04.964Z,1.17
2023-03-08T07:29:04.845Z,1.17
2023-03-08T07:30:04.830Z,1.2
2023-03-08T07:31:04.497Z,1.2
2023-03-08T07:32:04.967Z,1.17
2023-03-08T07:33:04.904Z,1.26
2023-03-08T07:34:04.618Z,1.14
2023-03-08T07:35:04.581Z,1.24
2023-03-08T07:36:04.900Z,1.26
2023-03-08T07:37:04.531Z,1.34
2023-03-08T07:38:04.501Z,1.26
2023-03-08T07:39:04.498Z,1.2
2023-03-08T07:40:04.436Z,1.22
2023-03-08T07:41:04.199Z,1.14
2023-03-08T07:42:04.328Z,1.1
2023-03-08T07:43:04.317Z,1.16
2023-03-08T07:44:04.274Z,1.14
2023-03-08T07:45:04.222Z,1.14
2023-03-08T07:46:04.395Z,1.19
2023-03-08T07:47:04.140Z,1.19
2023-03-08T07:48:04.114Z,1.12
2023-03-08T07:49:04.087Z,1.13
2023-03-08T07:50:04.040Z,1.1
2023-03-08T07:51:04.000Z,1.06
2023-03-08T07:52:04.000Z,1.17
2023-03-08T07:53:03.984Z,1.1
2023-03-08T07:54:03.923Z,1.14
2023-03-08T07:55:03.915Z,1.13
2023-03-08T07:56:03.849Z,1.14
2023-03-08T07:57:03.806Z,1.13
2023-03-08T07:58:03.862Z,1.1
2023-03-08T07:59:03.776Z,1.06
2023-03-08T08:00:03.745Z,1.1
2023-03-08T08:01:03.399Z,1.06
2023-03-08T08:02:03.359Z,1.1
2023-03-08T08:03:03.804Z,1.08
2023-03-08T08:04:03.770Z,1.08
2023-03-08T08:05:03.693Z,1.16
2023-03-08T08:06:03.449Z,1.12
2023-03-08T08:07:05.164Z,1.16
2023-03-08T08:08:03.379Z,1.1
2023-03-08T08:09:03.685Z,1.19
2023-03-08T08:10:03.313Z,1.16
2023-03-08T08:11:03.610Z,1.22
2023-03-08T08:12:03.236Z,1.14
2023-03-08T08:13:03.204Z,1.22
2023-03-08T08:14:02.675Z,1.17
2023-03-08T08:15:03.258Z,1.19
2023-03-08T08:16:03.372Z,1.2
2023-03-08T08:17:03.044Z,1.24
2023-03-08T08:18:03.007Z,1.23
2023-03-08T08:19:02.976Z,1.3
2023-03-08T08:20:02.948Z,1.26
2023-03-08T08:21:02.904Z,1.24
2023-03-08T08:22:02.632Z,1.2
2023-03-08T08:23:02.847Z,1.23
2023-03-08T08:24:02.787Z,1.24
2023-03-08T08:25:02.783Z,1.17
2023-03-08T08:26:02.730Z,1.19
2023-03-08T08:27:02.724Z,1.22
2023-03-08T08:28:02.777Z,1.28
2023-03-08T08:29:02.607Z,1.19
2023-03-08T08:30:02.567Z,1.26
2023-03-08T08:31:02.679Z,1.2
2023-03-08T08:32:02.364Z,1.2
2023-03-08T08:33:02.467Z,1.28
2023-03-08T08:34:02.236Z,1.23
2023-03-08T08:35:04.975Z,1.2
2023-03-08T08:36:02.640Z,1.17
2023-03-08T08:37:02.333Z,1.24
2023-03-08T08:38:02.282Z,1.34
2023-03-08T08:39:02.270Z,1.26
2023-03-08T08:40:02.211Z,1.26
2023-03-08T08:41:02.341Z,1.34
2023-03-08T08:42:02.181Z,1.3
2023-03-08T08:43:02.128Z,1.32
2023-03-08T08:44:02.081Z,1.28
2023-03-08T08:45:02.024Z,1.31
2023-03-08T08:46:02.173Z,1.3
2023-03-08T08:47:01.985Z,1.3
2023-03-08T08:48:01.673Z,1.3
2023-03-08T08:49:01.897Z,1.3
2023-03-08T08:50:01.839Z,1.3
2023-03-08T08:51:01.808Z,1.2
2023-03-08T08:52:01.796Z,1.24
2023-03-08T08:53:02.073Z,1.26
2023-03-08T08:54:01.757Z,1.28
2023-03-08T08:55:01.412Z,1.34
2023-03-08T08:56:01.633Z,1.3
2023-03-08T08:57:01.622Z,1.2
2023-03-08T08:58:01.563Z,1.2
2023-03-08T08:59:01.691Z,1.23
2023-03-08T09:00:01.480Z,1.19
2023-03-08T09:01:01.443Z,1.16
2023-03-08T09:02:01.475Z,1.16
2023-03-08T09:03:01.455Z,1.23
2023-03-08T09:04:01.605Z,1.19
2023-03-08T09:05:01.469Z,1.22
2023-03-08T09:06:01.436Z,1.23
2023-03-08T09:07:00.993Z,1.22
2023-03-08T09:08:01.188Z,1.28
2023-03-08T09:09:01.194Z,1.24
2023-03-08T09:10:01.132Z,1.2
2023-03-08T09:11:01.099Z,1.3
2023-03-08T09:12:01.054Z,1.3
2023-03-08T09:13:02.752Z,1.28
2023-03-08T09:14:01.203Z,1.3
2023-03-08T09:15:00.996Z,1.32
2023-03-08T09:16:00.896Z,1.26
2023-03-08T09:17:01.074Z,1.22
2023-03-08T09:18:00.830Z,1.23
2023-03-08T09:19:00.961Z,1.22
2023-03-08T09:20:00.761Z,1.2
2023-03-08T09:21:00.786Z,1.2
2023-03-08T09:22:00.698Z,1.24
2023-03-08T09:23:00.804Z,1.24
2023-03-08T09:24:00.624Z,1.24
2023-03-08T09:25:00.581Z,1.19
2023-03-08T09:26:02.395Z,1.28
2023-03-08T09:27:00.529Z,1.31
2023-03-08T09:28:00.497Z,1.34
2023-03-08T09:29:00.466Z,1.35
2023-03-08T09:30:00.415Z,1.26
2023-03-08T09:31:00.400Z,1.31
2023-03-08T09:32:02.620Z,1.19
2023-03-08T09:33:00.177Z,1.24
2023-03-08T09:34:00.351Z,1.19
2023-03-08T09:35:00.262Z,1.17
2023-03-08T09:36:00.625Z,1.19
2023-03-08T09:36:59.922Z,1.08
2023-03-08T09:38:01.351Z,1.08
2023-03-08T09:38:59.822Z,1.05
2023-03-08T09:39:59.809Z,1.05
2023-03-08T09:41:00.013Z,1.12
2023-03-08T09:41:59.990Z,1.1
2023-03-08T09:42:59.949Z,1.02
2023-03-08T09:43:59.881Z,1.16
2023-03-08T09:44:59.920Z,1.2
2023-03-08T09:46:00.014Z,1.23
2023-03-08T09:46:59.589Z,1.28
2023-03-08T09:47:59.715Z,1.28
2023-03-08T09:48:59.761Z,1.3
2023-03-08T09:49:59.664Z,1.31
2023-03-08T09:50:59.691Z,1.26
2023-03-08T09:51:59.637Z,1.3
2023-03-08T09:52:59.624Z,1.32
2023-03-08T09:53:59.556Z,1.4
2023-03-08T09:54:59.712Z,1.38
2023-03-08T09:55:59.473Z,1.55
2023-03-08T09:56:59.168Z,1.53
2023-03-08T09:57:59.534Z,1.38
2023-03-08T09:58:59.339Z,1.49
2023-03-08T09:59:59.307Z,1.42
2023-03-08T10:00:59.418Z,1.49
2023-03-08T10:01:59.225Z,1.49
2023-03-08T10:02:59.274Z,1.4
2023-03-08T10:03:59.421Z,1.49
2023-03-08T10:05:16.835Z,1.52
2023-03-08T10:05:58.851Z,1.6
2023-03-08T10:06:59.111Z,1.55
2023-03-08T10:07:59.027Z,1.62
2023-03-08T10:08:59.016Z,1.6
2023-03-08T10:09:58.949Z,1.62
2023-03-08T10:10:58.922Z,1.59
2023-03-08T10:11:58.630Z,1.78
2023-03-08T10:12:58.832Z,1.78
2023-03-08T10:13:58.810Z,1.78
2023-03-08T10:14:58.823Z,1.84
2023-03-08T10:15:58.479Z,1.85
2023-03-08T10:16:59.161Z,1.8
2023-03-08T10:17:58.409Z,1.84
2023-03-08T10:18:58.649Z,1.92
2023-03-08T10:19:58.578Z,1.91
2023-03-08T10:20:58.642Z,1.91
2023-03-08T10:21:58.268Z,2.04
2023-03-08T10:22:58.514Z,1.97
2023-03-08T10:23:58.452Z,2.04
2023-03-08T10:24:58.400Z,1.97
2023-03-08T10:25:58.374Z,1.94
2023-03-08T10:26:58.334Z,2.04
2023-03-08T10:27:58.312Z,2.04
2023-03-08T10:28:58.261Z,1.92
2023-03-08T10:29:57.979Z,1.88
2023-03-08T10:30:58.503Z,1.77
2023-03-08T10:31:58.259Z,1.85
2023-03-08T10:33:01.104Z,1.78
2023-03-08T10:33:58.083Z,1.95
2023-03-08T10:34:58.071Z,2.02
2023-03-08T10:35:58.237Z,1.99
2023-03-08T10:36:57.982Z,2
2023-03-08T10:37:57.717Z,1.92
2023-03-08T10:38:57.933Z,1.92
2023-03-08T10:39:58.000Z,1.91
2023-03-08T10:40:57.841Z,1.89
2023-03-08T10:41:57.819Z,1.88
2023-03-08T10:42:57.521Z,1.88
2023-03-08T10:43:57.733Z,1.77
2023-03-08T10:44:57.713Z,1.77
2023-03-08T10:45:57.622Z,1.85
2023-03-08T10:46:57.657Z,1.88
2023-03-08T10:47:57.592Z,1.88
2023-03-08T10:48:57.590Z,1.91
2023-03-08T10:49:57.294Z,1.88
2023-03-08T10:50:57.514Z,1.87
2023-03-08T10:51:57.532Z,1.97
2023-03-08T10:52:57.458Z,2.06
2023-03-08T10:53:57.390Z,2.15
2023-03-08T10:54:57.470Z,2.13
2023-03-08T10:55:57.402Z,2.14
2023-03-08T10:56:57.032Z,2.08
2023-03-08T10:57:57.260Z,2.26
2023-03-08T10:58:57.193Z,2.29
2023-03-08T10:59:57.210Z,2.28
2023-03-08T11:00:56.887Z,2.13
2023-03-08T11:01:57.141Z,2.04
2023-03-08T11:02:57.054Z,2.04
2023-03-08T11:03:57.062Z,2.11
2023-03-08T11:04:57.223Z,2.07
2023-03-08T11:05:56.728Z,2.04
2023-03-08T11:06:56.993Z,2.06
2023-03-08T11:07:56.888Z,2.02
2023-03-08T11:08:56.880Z,2
2023-03-08T11:09:56.878Z,2.07
2023-03-08T11:10:56.974Z,2.14
2023-03-08T11:11:56.741Z,2.11
2023-03-08T11:12:56.759Z,2.18
2023-03-08T11:13:56.682Z,2.28
2023-03-08T11:14:57.017Z,2.26
2023-03-08T11:15:56.690Z,2.29
2023-03-08T11:16:56.612Z,2.36
2023-03-08T11:17:56.619Z,2.28
2023-03-08T11:18:56.748Z,2.32
2023-03-08T11:19:56.484Z,2.24
2023-03-08T11:20:56.573Z,2.25
2023-03-08T11:21:56.409Z,2.25
2023-03-08T11:22:56.410Z,2.26
2023-03-08T11:23:56.440Z,2.14
2023-03-08T11:24:56.287Z,2.22
2023-03-08T11:25:56.240Z,2.14
2023-03-08T11:26:56.457Z,2.1
2023-03-08T11:27:56.395Z,2.06
2023-03-08T11:28:56.353Z,2
2023-03-08T11:29:56.091Z,2.08
2023-03-08T11:30:56.141Z,2.17
2023-03-08T11:31:56.045Z,2.11
2023-03-08T11:32:56.712Z,2.11
2023-03-08T11:33:56.385Z,2.11
2023-03-08T11:34:55.942Z,2.11
2023-03-08T11:35:56.011Z,2.1
2023-03-08T11:36:55.880Z,2.08
2023-03-08T11:37:55.817Z,2.11
2023-03-08T11:38:55.864Z,2.11
2023-03-08T11:39:55.797Z,2.2
2023-03-08T11:40:55.722Z,2.28
2023-03-08T11:41:55.698Z,2.28
2023-03-08T11:42:55.707Z,2.25
2023-03-08T11:43:55.609Z,2.26
2023-03-08T11:44:55.576Z,2.28
2023-03-08T11:45:55.597Z,2.28
2023-03-08T11:46:55.752Z,2.22
2023-03-08T11:47:55.466Z,2.28
2023-03-08T11:48:55.547Z,2.29
2023-03-08T11:49:55.410Z,2.24
2023-03-08T11:50:55.145Z,2.26
2023-03-08T11:51:55.325Z,2.29
2023-03-08T11:52:55.312Z,2.17
2023-03-08T11:53:55.250Z,2.2
2023-03-08T11:54:55.426Z,2.33
2023-03-08T11:55:55.197Z,2.33
2023-03-08T11:56:55.154Z,2.26
2023-03-08T11:57:55.116Z,2.32
2023-03-08T11:58:55.141Z,2.28
2023-03-08T11:59:55.041Z,2.25
2023-03-08T12:00:55.007Z,2.28
2023-03-08T12:01:54.993Z,2.35
2023-03-08T12:02:54.715Z,2.32
2023-03-08T12:03:55.167Z,2.28
2023-03-08T12:04:55.503Z,2.31
2023-03-08T12:05:55.278Z,2.22
2023-03-08T12:06:55.324Z,2.24
2023-03-08T12:07:54.828Z,2.29
2023-03-08T12:08:54.858Z,2.29
2023-03-08T12:09:54.828Z,2.32
2023-03-08T12:10:54.725Z,2.24
2023-03-08T12:11:54.613Z,2.33
2023-03-08T12:12:54.573Z,2.29
2023-03-08T12:13:54.571Z,2.39
2023-03-08T12:14:54.540Z,2.35
2023-03-08T12:15:54.544Z,2.29
2023-03-08T12:16:54.901Z,2.26
2023-03-08T12:17:54.416Z,2.28
2023-03-08T12:18:54.362Z,2.29
2023-03-08T12:19:54.333Z,2.38
2023-03-08T12:20:54.301Z,2.38
2023-03-08T12:21:54.253Z,2.29
2023-03-08T12:22:54.522Z,2.26
2023-03-08T12:23:54.391Z,2.31
2023-03-08T12:24:54.329Z,2.29
2023-03-08T12:25:54.119Z,2.36
2023-03-08T12:26:54.325Z,2.29
2023-03-08T12:27:54.209Z,2.38
2023-03-08T12:28:54.017Z,2.29
2023-03-08T12:29:54.092Z,2.39
2023-03-08T12:30:53.973Z,2.38
2023-03-08T12:31:54.369Z,2.33
2023-03-08T12:32:54.569Z,2.31
2023-03-08T12:33:53.910Z,2.28
2023-03-08T12:34:53.807Z,2.22
2023-03-08T12:35:54.306Z,2.24
2023-03-08T12:36:54.090Z,2.32
2023-03-08T12:37:53.868Z,2.33
2023-03-08T12:38:53.433Z,2.32
2023-03-08T12:39:53.854Z,2.32
2023-03-08T12:40:53.857Z,2.33
2023-03-08T12:41:53.721Z,2.32
2023-03-08T12:42:53.304Z,2.38
2023-03-08T12:43:53.489Z,2.35
2023-03-08T12:44:53.460Z,2.31
2023-03-08T12:45:56.011Z,2.35
2023-03-08T12:47:07.189Z,2.29
2023-03-08T12:47:53.627Z,2.28
2023-03-08T12:48:53.347Z,2.39
2023-03-08T12:49:53.572Z,2.31
2023-03-08T12:50:53.443Z,2.35
2023-03-08T12:51:53.289Z,2.32
2023-03-08T12:52:53.556Z,2.24
2023-03-08T12:53:53.156Z,2.44
2023-03-08T12:54:52.866Z,2.25
2023-03-08T12:55:53.061Z,2.47
2023-03-08T12:56:53.091Z,2.33
2023-03-08T12:57:52.998Z,2.39
2023-03-08T12:58:52.995Z,2.44
2023-03-08T12:59:52.930Z,2.43
2023-03-08T13:00:53.090Z,2.29
2023-03-08T13:01:52.862Z,2.43
2023-03-08T13:02:52.842Z,2.33
2023-03-08T13:03:52.799Z,2.38
2023-03-08T13:04:52.921Z,2.31
2023-03-08T13:05:52.741Z,2.33
2023-03-08T13:06:52.690Z,2.38
2023-03-08T13:07:52.642Z,2.42
2023-03-08T13:08:52.616Z,2.43
2023-03-08T13:09:54.617Z,2.47
2023-03-08T13:10:52.602Z,2.56
2023-03-08T13:11:52.516Z,2.47
2023-03-08T13:12:52.504Z,2.53
2023-03-08T13:13:52.593Z,2.62
2023-03-08T13:14:52.467Z,2.56
2023-03-08T13:15:54.654Z,2.57
2023-03-08T13:16:52.418Z,2.49
2023-03-08T13:17:52.301Z,2.51
2023-03-08T13:18:54.740Z,2.46
2023-03-08T13:19:52.104Z,2.44
2023-03-08T13:20:52.192Z,2.43
2023-03-08T13:21:52.131Z,2.5
2023-03-08T13:22:52.338Z,2.49